Weather History for Charlevoix, MI

Change the Weather History Date:

Sunday, December 30, 2012

  Actual Average Record
Temperature  
Mean Temperature 27 °F -  
Max Temperature 29 °F 31 °F 42 °F (2002)
Min Temperature 25 °F 21 °F 12 °F (2013)
Degree Days  
Heating Degree Days 38    
Moisture  
Dew Point 21 °F    
Average Humidity 78    
Maximum Humidity 94    
Minimum Humidity 62    
Precipitation  
Precipitation 0.00 in - - ()
Sea Level Pressure  
Sea Level Pressure 30.11 in    
Wind  
Wind Speed 8 mph (SW)    
Max Wind Speed 18 mph    
Max Gust Speed 22 mph    
Visibility 9 miles    
Events Snow    
Averages and records for this station are not official NWS values.
T = Trace of Precipitation, MM = Missing Value Source: NWS Daily Summary

Daily Weather History Graph

Daily Weather History Graph

Search for Another Location

Airport:

Trip Planner

Search our weather history database for the weather conditions in past years. The results will help you decide how hot, cold, wet, or windy it might be!

Date:

Astronomy

Dec. 30, 2012 Rise Set
Actual Time 8:20 AM EST 5:07 PM EST
Civil Twilight 7:46 AM EST 5:41 PM EST
Nautical Twilight 7:09 AM EST 6:18 PM EST
Astronomical Twilight 6:33 AM EST 6:54 PM EST
Moon 7:45 PM EST (12/30) 9:22 AM EST (12/30)
Length of Visible Light 9h 55m
Length of Day
8h 47m
Waning Gibbous, 95% of the Moon is Illuminated
Dec 30
Waning Gibbous
Jan 4
Last Quarter
Jan 11
New
Jan 18
First Quarter
Jan 26
Full

Hourly Weather History & Observations

Time (EST) Temp. Windchill Dew Point Humidity Pressure Visibility Wind Dir Wind Speed Gust Speed Precip Events Conditions
12:14 AM 29.1 °F 21.3 °F 19.2 °F 67% 30.04 in 10.0 mi NNW 8.1 mph - N/A   Overcast
12:35 AM 29.3 °F 22.3 °F 19.2 °F 66% 30.04 in 10.0 mi North 6.9 mph - N/A   Overcast
12:54 AM 29.3 °F 23.2 °F 18.3 °F 64% 30.04 in 10.0 mi North 5.8 mph - N/A   Overcast
1:15 AM 29.3 °F 24.3 °F 17.8 °F 62% 30.04 in 10.0 mi North 4.6 mph - N/A   Overcast
1:55 AM 29.1 °F - 19.4 °F 67% 30.04 in 10.0 mi Calm Calm - N/A Snow Light Snow
2:15 AM 28.9 °F 25.2 °F 21.2 °F 73% 30.05 in 7.0 mi SW 3.5 mph - N/A Snow Light Snow
2:34 AM 27.5 °F 22.2 °F 21.9 °F 80% 30.07 in 3.0 mi SW 4.6 mph - N/A Snow Light Snow
2:55 AM 26.6 °F - 23.9 °F 90% 30.08 in 1.8 mi Calm Calm - N/A Snow Light Snow
3:14 AM 26.4 °F 20.9 °F 24.8 °F 94% 30.08 in 5.0 mi South 4.6 mph - N/A Snow Light Snow
3:34 AM 26.6 °F - 25.2 °F 94% 30.08 in 2.5 mi Calm Calm - N/A Snow Light Snow
3:55 AM 26.2 °F 20.7 °F 24.8 °F 94% 30.09 in 5.0 mi South 4.6 mph - N/A Snow Light Snow
4:15 AM 26.2 °F 19.6 °F 24.3 °F 92% 30.09 in 5.0 mi South 5.8 mph - N/A Snow Light Snow
4:34 AM 26.1 °F 18.4 °F 23.9 °F 92% 30.09 in 7.0 mi South 6.9 mph - N/A Snow Light Snow
4:55 AM 26.6 °F 21.2 °F 23.7 °F 89% 30.09 in 10.0 mi South 4.6 mph - N/A   Overcast
5:14 AM 27.3 °F 18.4 °F 23.4 °F 85% 30.09 in 10.0 mi West 9.2 mph - N/A   Overcast
5:34 AM 29.1 °F 22.1 °F 21.2 °F 72% 30.09 in 10.0 mi SW 6.9 mph - N/A   Overcast
5:54 AM 28.9 °F 19.2 °F 20.8 °F 72% 30.10 in 10.0 mi WSW 11.5 mph - N/A   Overcast
6:15 AM 28.9 °F 18.6 °F 19.8 °F 69% 30.11 in 10.0 mi West 12.7 mph - N/A   Overcast
6:35 AM 28.6 °F 16.8 °F 19.0 °F 67% 30.12 in 10.0 mi West 16.1 mph 21.9 mph N/A   Overcast
7:15 AM 28.0 °F 16.5 °F 19.2 °F 70% 30.14 in 10.0 mi West 15.0 mph - N/A   Overcast
7:34 AM 28.4 °F 16.6 °F 19.8 °F 70% 30.14 in 10.0 mi West 16.1 mph 19.6 mph N/A   Overcast
7:54 AM 28.4 °F 15.8 °F 19.8 °F 70% 30.15 in 10.0 mi West 18.4 mph - N/A   Overcast
8:15 AM 28.4 °F 19.1 °F 20.3 °F 72% 30.15 in 10.0 mi West 10.4 mph 20.7 mph N/A   Overcast
8:35 AM 28.4 °F 16.6 °F 20.5 °F 72% 30.15 in 10.0 mi West 16.1 mph 21.9 mph N/A   Overcast
8:55 AM 28.8 °F 18.4 °F 20.5 °F 71% 30.15 in 10.0 mi West 12.7 mph - N/A   Overcast
9:15 AM 28.6 °F 18.2 °F 21.0 °F 73% 30.15 in 10.0 mi West 12.7 mph 16.1 mph N/A   Overcast
9:35 AM 28.4 °F 19.1 °F 20.8 °F 73% 30.15 in 10.0 mi West 10.4 mph - N/A   Overcast
9:55 AM 28.4 °F 19.1 °F 21.0 °F 74% 30.16 in 10.0 mi WSW 10.4 mph - N/A   Overcast
10:14 AM 28.2 °F 18.3 °F 20.3 °F 72% 30.17 in 10.0 mi WSW 11.5 mph - N/A   Overcast
10:35 AM 28.2 °F 21.0 °F 20.5 °F 73% 30.17 in 10.0 mi SW 6.9 mph - N/A   Overcast
10:43 AM 28.2 °F 21.0 °F 20.7 °F 73% 30.17 in 10.0 mi SW 6.9 mph - N/A   Overcast
11:37 AM 28.4 °F 19.1 °F 19.4 °F 69% 30.17 in 10.0 mi SW 10.4 mph - N/A   Overcast
11:56 AM - - - N/A% - - North - - N/A   Unknown
12:12 PM - - - N/A% 30.17 in 10.0 mi SSW 11.5 mph - N/A   Overcast
12:15 PM 27.3 °F 19.1 °F 20.8 °F 77% 30.17 in 10.0 mi SW 8.1 mph - N/A   Overcast
12:35 PM 27.1 °F 18.9 °F 21.2 °F 78% 30.17 in 10.0 mi SSW 8.1 mph - N/A   Overcast
12:54 PM 27.1 °F 16.4 °F 21.2 °F 78% 30.16 in 10.0 mi SW 12.7 mph 17.3 mph N/A   Overcast
1:15 PM 27.0 °F 16.7 °F 21.2 °F 79% 30.15 in 10.0 mi SW 11.5 mph - N/A   Overcast
1:35 PM 27.0 °F 16.1 °F 21.0 °F 78% 30.15 in 10.0 mi SW 12.7 mph 18.4 mph N/A   Overcast
1:55 PM 27.0 °F 19.5 °F 21.2 °F 79% 30.15 in 10.0 mi SW 6.9 mph - N/A   Overcast
2:15 PM 27.0 °F 16.7 °F 21.2 °F 79% 30.15 in 10.0 mi SW 11.5 mph 16.1 mph N/A   Overcast
2:35 PM 27.0 °F 18.0 °F 21.6 °F 80% 30.15 in 10.0 mi SW 9.2 mph - N/A   Overcast
2:55 PM 26.8 °F 17.1 °F 21.2 °F 79% 30.14 in 10.0 mi SW 10.4 mph - N/A   Overcast
3:15 PM 26.6 °F 18.2 °F 20.7 °F 78% 30.14 in 10.0 mi SW 8.1 mph - N/A   Overcast
3:35 PM 26.6 °F 16.8 °F 20.7 °F 78% 30.14 in 10.0 mi SW 10.4 mph - N/A   Overcast
3:55 PM 26.4 °F 16.6 °F 20.1 °F 77% 30.14 in 10.0 mi SW 10.4 mph - N/A   Overcast
4:15 PM 26.2 °F 16.4 °F 19.6 °F 76% 30.14 in 10.0 mi SSW 10.4 mph - N/A   Overcast
4:35 PM 26.2 °F 17.1 °F 19.4 °F 75% 30.13 in 10.0 mi SSW 9.2 mph 18.4 mph N/A   Overcast
4:55 PM 26.1 °F 16.8 °F 19.2 °F 75% 30.12 in 10.0 mi SW 9.2 mph - N/A   Overcast
5:15 PM 26.1 °F 19.4 °F 19.4 °F 76% 30.12 in 10.0 mi SSW 5.8 mph - N/A   Overcast
5:40 PM 25.7 °F 18.0 °F 19.9 °F 79% 30.11 in 10.0 mi SSW 6.9 mph - N/A   Overcast
6:00 PM 25.7 °F 18.0 °F 20.1 °F 79% 30.11 in 10.0 mi SW 6.9 mph - N/A   Overcast
6:34 PM 25.7 °F 18.0 °F 20.3 °F 80% 30.11 in 10.0 mi SW 6.9 mph - N/A   Overcast
6:55 PM 25.7 °F 16.4 °F 19.9 °F 79% 30.12 in 10.0 mi SSW 9.2 mph - N/A   Overcast
7:14 PM 25.5 °F 13.8 °F 19.9 °F 79% 30.11 in 10.0 mi SSW 13.8 mph 17.3 mph N/A   Overcast
7:35 PM 25.5 °F 14.9 °F 20.3 °F 81% 30.10 in 10.0 mi South 11.5 mph 16.1 mph N/A   Overcast
7:54 PM 25.9 °F 18.2 °F 21.2 °F 82% 30.09 in 10.0 mi South 6.9 mph - N/A   Overcast
8:14 PM 27.0 °F 17.3 °F 22.5 °F 83% 30.08 in 10.0 mi SSW 10.4 mph 17.3 mph N/A   Overcast
8:35 PM 27.5 °F 16.8 °F 23.0 °F 83% 30.09 in 10.0 mi SSW 12.7 mph 18.4 mph N/A   Overcast
8:54 PM 27.5 °F 17.4 °F 23.0 °F 83% 30.07 in 10.0 mi SSW 11.5 mph 21.9 mph N/A   Overcast
9:15 PM 28.0 °F 17.0 °F 23.5 °F 83% 30.07 in 10.0 mi SSW 13.8 mph 21.9 mph N/A   Overcast
9:34 PM 27.9 °F 17.8 °F 23.4 °F 83% 30.05 in 10.0 mi SSW 11.5 mph 18.4 mph N/A   Mostly Cloudy
9:55 PM 27.5 °F 19.3 °F 23.4 °F 84% 30.04 in 10.0 mi South 8.1 mph - N/A   Scattered Clouds
10:15 PM 27.5 °F 19.3 °F 23.7 °F 86% 30.03 in 10.0 mi South 8.1 mph - N/A   Mostly Cloudy
10:55 PM 28.0 °F 20.8 °F 23.9 °F 84% 30.02 in 10.0 mi SSE 6.9 mph - N/A   Overcast
11:14 PM 27.3 °F 18.4 °F 23.4 °F 85% 30.01 in 10.0 mi South 9.2 mph - N/A   Overcast
11:35 PM 28.0 °F 20.0 °F 23.9 °F 84% 30.00 in 10.0 mi South 8.1 mph - N/A   Overcast
11:54 PM 28.4 °F 21.2 °F 24.6 °F 86% 29.99 in 10.0 mi South 6.9 mph - N/A   Overcast